sensor_id;sensor_type;location;lat;lon;timestamp;pressure;altitude;pressure_sealevel;temperature;humidity
66668;BME280;57205;51.438;-2.006;2022-12-29T00:01:21;98705.06;;;7.91;100.00
66668;BME280;57205;51.438;-2.006;2022-12-29T00:03:46;98716.41;;;7.97;100.00
66668;BME280;57205;51.438;-2.006;2022-12-29T00:06:12;98714.84;;;7.96;100.00
66668;BME280;57205;51.438;-2.006;2022-12-29T00:08:37;98709.63;;;7.91;100.00
66668;BME280;57205;51.438;-2.006;2022-12-29T00:11:06;98696.38;;;7.86;100.00
66668;BME280;57205;51.438;-2.006;2022-12-29T00:13:32;98702.91;;;7.80;100.00
66668;BME280;57205;51.438;-2.006;2022-12-29T00:16:16;98706.72;;;7.74;100.00
66668;BME280;57205;51.438;-2.006;2022-12-29T00:18:42;98696.16;;;7.69;100.00
66668;BME280;57205;51.438;-2.006;2022-12-29T00:21:07;98706.88;;;7.64;100.00
66668;BME280;57205;51.438;-2.006;2022-12-29T00:23:53;98698.19;;;7.58;100.00
66668;BME280;57205;51.438;-2.006;2022-12-29T00:26:37;98686.84;;;7.53;100.00
66668;BME280;57205;51.438;-2.006;2022-12-29T00:29:21;98685.56;;;7.50;100.00
66668;BME280;57205;51.438;-2.006;2022-12-29T00:32:06;98678.66;;;7.49;100.00
66668;BME280;57205;51.438;-2.006;2022-12-29T00:34:50;98671.25;;;7.46;100.00
66668;BME280;57205;51.438;-2.006;2022-12-29T00:37:38;98662.28;;;7.42;100.00
66668;BME280;57205;51.438;-2.006;2022-12-29T00:40:23;98656.16;;;7.42;100.00
66668;BME280;57205;51.438;-2.006;2022-12-29T00:43:07;98658.81;;;7.42;100.00
66668;BME280;57205;51.438;-2.006;2022-12-29T00:45:51;98659.13;;;7.40;100.00
66668;BME280;57205;51.438;-2.006;2022-12-29T00:48:16;98662.88;;;7.39;100.00
66668;BME280;57205;51.438;-2.006;2022-12-29T00:51:05;98661.78;;;7.40;100.00
66668;BME280;57205;51.438;-2.006;2022-12-29T00:53:30;98642.34;;;7.40;100.00
66668;BME280;57205;51.438;-2.006;2022-12-29T00:55:55;98643.16;;;7.40;100.00
66668;BME280;57205;51.438;-2.006;2022-12-29T00:58:20;98645.00;;;7.40;100.00
66668;BME280;57205;51.438;-2.006;2022-12-29T01:00:46;98652.22;;;7.39;100.00
66668;BME280;57205;51.438;-2.006;2022-12-29T01:03:11;98641.59;;;7.39;100.00
66668;BME280;57205;51.438;-2.006;2022-12-29T01:05:36;98641.28;;;7.41;100.00
66668;BME280;57205;51.438;-2.006;2022-12-29T01:08:02;98638.22;;;7.47;100.00
66668;BME280;57205;51.438;-2.006;2022-12-29T01:10:27;98632.91;;;7.47;100.00
66668;BME280;57205;51.438;-2.006;2022-12-29T01:12:52;98646.72;;;7.49;100.00
66668;BME280;57205;51.438;-2.006;2022-12-29T01:15:18;98634.50;;;7.48;100.00
66668;BME280;57205;51.438;-2.006;2022-12-29T01:17:43;98632.25;;;7.55;100.00
66668;BME280;57205;51.438;-2.006;2022-12-29T01:20:09;98619.75;;;7.56;100.00
66668;BME280;57205;51.438;-2.006;2022-12-29T01:22:35;98621.31;;;7.57;100.00
66668;BME280;57205;51.438;-2.006;2022-12-29T01:25:01;98618.44;;;7.53;100.00
66668;BME280;57205;51.438;-2.006;2022-12-29T01:27:26;98611.81;;;7.51;100.00
66668;BME280;57205;51.438;-2.006;2022-12-29T01:29:52;98614.50;;;7.51;100.00
66668;BME280;57205;51.438;-2.006;2022-12-29T01:32:17;98597.47;;;7.52;100.00
66668;BME280;57205;51.438;-2.006;2022-12-29T01:34:42;98608.59;;;7.54;100.00
66668;BME280;57205;51.438;-2.006;2022-12-29T01:37:08;98609.66;;;7.53;100.00
66668;BME280;57205;51.438;-2.006;2022-12-29T01:39:33;98607.69;;;7.58;100.00
66668;BME280;57205;51.438;-2.006;2022-12-29T01:41:58;98606.53;;;7.64;100.00
66668;BME280;57205;51.438;-2.006;2022-12-29T01:47:08;98616.81;;;7.71;100.00
66668;BME280;57205;51.438;-2.006;2022-12-29T01:49:33;98615.13;;;7.75;100.00
66668;BME280;57205;51.438;-2.006;2022-12-29T01:52:01;98615.31;;;7.78;100.00
66668;BME280;57205;51.438;-2.006;2022-12-29T01:54:31;98609.31;;;7.86;100.00
66668;BME280;57205;51.438;-2.006;2022-12-29T01:56:59;98610.63;;;7.89;100.00
66668;BME280;57205;51.438;-2.006;2022-12-29T01:59:27;98602.03;;;7.92;100.00
66668;BME280;57205;51.438;-2.006;2022-12-29T02:01:54;98606.78;;;7.95;100.00
66668;BME280;57205;51.438;-2.006;2022-12-29T02:04:20;98603.31;;;7.95;100.00
66668;BME280;57205;51.438;-2.006;2022-12-29T02:06:51;98602.41;;;7.99;100.00
66668;BME280;57205;51.438;-2.006;2022-12-29T02:09:18;98600.84;;;7.98;100.00
66668;BME280;57205;51.438;-2.006;2022-12-29T02:11:43;98604.00;;;8.00;100.00
66668;BME280;57205;51.438;-2.006;2022-12-29T02:14:12;98606.38;;;8.02;100.00
66668;BME280;57205;51.438;-2.006;2022-12-29T02:19:27;98602.91;;;8.15;100.00
66668;BME280;57205;51.438;-2.006;2022-12-29T02:22:00;98602.59;;;8.16;100.00
66668;BME280;57205;51.438;-2.006;2022-12-29T02:32:20;98606.75;;;8.22;100.00
66668;BME280;57205;51.438;-2.006;2022-12-29T02:45:59;98618.69;;;8.38;100.00
66668;BME280;57205;51.438;-2.006;2022-12-29T02:50:34;98622.34;;;8.42;100.00
66668;BME280;57205;51.438;-2.006;2022-12-29T02:53:02;98635.69;;;8.42;100.00
66668;BME280;57205;51.438;-2.006;2022-12-29T02:55:29;98627.88;;;8.46;100.00
66668;BME280;57205;51.438;-2.006;2022-12-29T02:58:13;98628.38;;;8.48;100.00
66668;BME280;57205;51.438;-2.006;2022-12-29T03:00:43;98626.50;;;8.48;100.00
66668;BME280;57205;51.438;-2.006;2022-12-29T03:06:03;98637.34;;;8.52;100.00
66668;BME280;57205;51.438;-2.006;2022-12-29T03:11:17;98649.38;;;8.49;100.00
66668;BME280;57205;51.438;-2.006;2022-12-29T03:14:08;98660.66;;;8.46;100.00
66668;BME280;57205;51.438;-2.006;2022-12-29T03:16:59;98655.63;;;8.45;100.00
66668;BME280;57205;51.438;-2.006;2022-12-29T03:19:37;98661.84;;;8.40;100.00
66668;BME280;57205;51.438;-2.006;2022-12-29T03:22:08;98675.47;;;8.39;100.00
66668;BME280;57205;51.438;-2.006;2022-12-29T03:25:14;98684.31;;;8.34;100.00
66668;BME280;57205;51.438;-2.006;2022-12-29T03:27:39;98697.19;;;8.32;100.00
66668;BME280;57205;51.438;-2.006;2022-12-29T03:30:06;98718.28;;;8.29;100.00
66668;BME280;57205;51.438;-2.006;2022-12-29T03:32:36;98705.84;;;8.24;100.00
66668;BME280;57205;51.438;-2.006;2022-12-29T03:35:04;98724.78;;;8.23;100.00
66668;BME280;57205;51.438;-2.006;2022-12-29T03:37:40;98727.72;;;8.21;100.00
66668;BME280;57205;51.438;-2.006;2022-12-29T03:40:06;98745.88;;;8.19;100.00
66668;BME280;57205;51.438;-2.006;2022-12-29T03:42:34;98745.38;;;8.17;100.00
66668;BME280;57205;51.438;-2.006;2022-12-29T03:45:00;98758.97;;;8.16;100.00
66668;BME280;57205;51.438;-2.006;2022-12-29T03:47:26;98774.00;;;8.12;100.00
66668;BME280;57205;51.438;-2.006;2022-12-29T03:49:51;98768.47;;;8.08;100.00
66668;BME280;57205;51.438;-2.006;2022-12-29T03:52:17;98779.97;;;8.04;100.00
66668;BME280;57205;51.438;-2.006;2022-12-29T03:54:42;98786.16;;;7.99;100.00
66668;BME280;57205;51.438;-2.006;2022-12-29T03:57:08;98801.44;;;7.93;100.00
66668;BME280;57205;51.438;-2.006;2022-12-29T03:59:33;98812.38;;;7.92;100.00
66668;BME280;57205;51.438;-2.006;2022-12-29T04:01:58;98816.91;;;7.91;100.00
66668;BME280;57205;51.438;-2.006;2022-12-29T04:04:24;98820.16;;;7.88;100.00
66668;BME280;57205;51.438;-2.006;2022-12-29T04:06:49;98820.16;;;7.88;100.00
66668;BME280;57205;51.438;-2.006;2022-12-29T04:09:14;98815.03;;;7.92;100.00
66668;BME280;57205;51.438;-2.006;2022-12-29T04:11:39;98822.81;;;7.88;100.00
66668;BME280;57205;51.438;-2.006;2022-12-29T04:14:05;98831.41;;;7.85;100.00
66668;BME280;57205;51.438;-2.006;2022-12-29T04:16:31;98832.19;;;7.86;100.00
66668;BME280;57205;51.438;-2.006;2022-12-29T04:19:00;98839.19;;;7.82;100.00
66668;BME280;57205;51.438;-2.006;2022-12-29T04:21:25;98844.56;;;7.77;100.00
66668;BME280;57205;51.438;-2.006;2022-12-29T04:23:51;98847.31;;;7.72;100.00
66668;BME280;57205;51.438;-2.006;2022-12-29T04:26:16;98864.94;;;7.68;100.00
66668;BME280;57205;51.438;-2.006;2022-12-29T04:28:41;98860.13;;;7.70;100.00
66668;BME280;57205;51.438;-2.006;2022-12-29T04:31:06;98865.22;;;7.66;100.00
66668;BME280;57205;51.438;-2.006;2022-12-29T04:33:32;98885.16;;;7.69;100.00
66668;BME280;57205;51.438;-2.006;2022-12-29T04:35:57;98881.41;;;7.70;100.00
66668;BME280;57205;51.438;-2.006;2022-12-29T04:38:23;98892.06;;;7.70;100.00
66668;BME280;57205;51.438;-2.006;2022-12-29T04:40:48;98897.38;;;7.70;100.00
66668;BME280;57205;51.438;-2.006;2022-12-29T04:43:14;98908.03;;;7.70;100.00
66668;BME280;57205;51.438;-2.006;2022-12-29T04:45:43;98907.00;;;7.66;100.00
66668;BME280;57205;51.438;-2.006;2022-12-29T04:48:09;98908.09;;;7.65;100.00
66668;BME280;57205;51.438;-2.006;2022-12-29T04:50:34;98923.06;;;7.61;100.00
66668;BME280;57205;51.438;-2.006;2022-12-29T04:52:59;98922.84;;;7.57;100.00
66668;BME280;57205;51.438;-2.006;2022-12-29T04:55:25;98926.84;;;7.55;100.00
66668;BME280;57205;51.438;-2.006;2022-12-29T04:57:52;98941.81;;;7.51;100.00
66668;BME280;57205;51.438;-2.006;2022-12-29T05:00:17;98949.34;;;7.44;100.00
66668;BME280;57205;51.438;-2.006;2022-12-29T05:02:42;98947.47;;;7.44;100.00
66668;BME280;57205;51.438;-2.006;2022-12-29T05:05:08;98967.75;;;7.40;100.00
66668;BME280;57205;51.438;-2.006;2022-12-29T05:07:33;98968.31;;;7.37;100.00
66668;BME280;57205;51.438;-2.006;2022-12-29T05:10:00;98979.72;;;7.38;100.00
66668;BME280;57205;51.438;-2.006;2022-12-29T05:12:29;98993.91;;;7.33;100.00
66668;BME280;57205;51.438;-2.006;2022-12-29T05:14:54;98999.75;;;7.35;100.00
66668;BME280;57205;51.438;-2.006;2022-12-29T05:17:19;99016.97;;;7.38;100.00
66668;BME280;57205;51.438;-2.006;2022-12-29T05:19:44;98999.75;;;7.35;100.00
66668;BME280;57205;51.438;-2.006;2022-12-29T05:22:10;99014.09;;;7.34;100.00
66668;BME280;57205;51.438;-2.006;2022-12-29T05:24:35;99024.97;;;7.38;100.00
66668;BME280;57205;51.438;-2.006;2022-12-29T05:27:00;99026.50;;;7.44;100.00
66668;BME280;57205;51.438;-2.006;2022-12-29T05:29:28;99034.44;;;7.49;100.00
66668;BME280;57205;51.438;-2.006;2022-12-29T05:31:53;99027.03;;;7.46;100.00
66668;BME280;57205;51.438;-2.006;2022-12-29T05:34:19;99027.53;;;7.48;100.00
66668;BME280;57205;51.438;-2.006;2022-12-29T05:36:44;99043.50;;;7.48;100.00
66668;BME280;57205;51.438;-2.006;2022-12-29T05:39:09;99041.94;;;7.47;100.00
66668;BME280;57205;51.438;-2.006;2022-12-29T05:41:35;99050.16;;;7.45;100.00
66668;BME280;57205;51.438;-2.006;2022-12-29T05:44:00;99062.47;;;7.41;100.00
66668;BME280;57205;51.438;-2.006;2022-12-29T05:46:26;99063.47;;;7.45;100.00
66668;BME280;57205;51.438;-2.006;2022-12-29T05:48:51;99078.63;;;7.50;100.00
66668;BME280;57205;51.438;-2.006;2022-12-29T05:51:16;99092.19;;;7.48;100.00
66668;BME280;57205;51.438;-2.006;2022-12-29T05:53:42;99091.41;;;7.48;100.00
66668;BME280;57205;51.438;-2.006;2022-12-29T05:56:07;99093.50;;;7.51;100.00
66668;BME280;57205;51.438;-2.006;2022-12-29T05:58:32;99101.47;;;7.51;100.00
66668;BME280;57205;51.438;-2.006;2022-12-29T06:00:58;99102.84;;;7.48;100.00
66668;BME280;57205;51.438;-2.006;2022-12-29T06:03:23;99106.56;;;7.47;100.00
66668;BME280;57205;51.438;-2.006;2022-12-29T06:05:48;99115.94;;;7.45;100.00
66668;BME280;57205;51.438;-2.006;2022-12-29T06:08:13;99121.28;;;7.40;100.00
66668;BME280;57205;51.438;-2.006;2022-12-29T06:10:39;99130.66;;;7.32;100.00
66668;BME280;57205;51.438;-2.006;2022-12-29T06:13:05;99136.81;;;7.28;100.00
66668;BME280;57205;51.438;-2.006;2022-12-29T06:15:31;99135.25;;;7.22;100.00
66668;BME280;57205;51.438;-2.006;2022-12-29T06:17:56;99141.41;;;7.17;100.00
66668;BME280;57205;51.438;-2.006;2022-12-29T06:20:22;99144.38;;;7.11;100.00
66668;BME280;57205;51.438;-2.006;2022-12-29T06:22:47;99145.50;;;7.05;100.00
66668;BME280;57205;51.438;-2.006;2022-12-29T06:25:12;99151.13;;;6.98;100.00
66668;BME280;57205;51.438;-2.006;2022-12-29T06:27:38;99143.97;;;6.93;100.00
66668;BME280;57205;51.438;-2.006;2022-12-29T06:30:03;99141.34;;;6.88;100.00
66668;BME280;57205;51.438;-2.006;2022-12-29T06:32:28;99141.91;;;6.85;100.00
66668;BME280;57205;51.438;-2.006;2022-12-29T06:34:53;99143.78;;;6.85;100.00
66668;BME280;57205;51.438;-2.006;2022-12-29T06:37:19;99148.84;;;6.81;100.00
66668;BME280;57205;51.438;-2.006;2022-12-29T06:39:44;99153.66;;;6.79;100.00
66668;BME280;57205;51.438;-2.006;2022-12-29T06:42:09;99162.44;;;6.75;100.00
66668;BME280;57205;51.438;-2.006;2022-12-29T06:44:35;99169.59;;;6.74;100.00
66668;BME280;57205;51.438;-2.006;2022-12-29T06:47:00;99178.09;;;6.76;100.00
66668;BME280;57205;51.438;-2.006;2022-12-29T06:49:25;99171.16;;;6.80;100.00
66668;BME280;57205;51.438;-2.006;2022-12-29T06:51:50;99171.16;;;6.80;100.00
66668;BME280;57205;51.438;-2.006;2022-12-29T06:54:16;99177.53;;;6.84;100.00
66668;BME280;57205;51.438;-2.006;2022-12-29T06:56:41;99181.50;;;6.87;100.00
66668;BME280;57205;51.438;-2.006;2022-12-29T06:59:06;99181.75;;;6.90;100.00
66668;BME280;57205;51.438;-2.006;2022-12-29T07:01:32;99178.00;;;6.91;100.00
66668;BME280;57205;51.438;-2.006;2022-12-29T07:03:57;99180.09;;;7.00;100.00
66668;BME280;57205;51.438;-2.006;2022-12-29T07:06:22;99170.53;;;6.99;100.00
66668;BME280;57205;51.438;-2.006;2022-12-29T07:08:48;99170.81;;;6.97;100.00
66668;BME280;57205;51.438;-2.006;2022-12-29T07:11:13;99172.16;;;6.95;100.00
66668;BME280;57205;51.438;-2.006;2022-12-29T07:13:38;99178.00;;;6.91;100.00
66668;BME280;57205;51.438;-2.006;2022-12-29T07:16:04;99189.22;;;6.88;100.00
66668;BME280;57205;51.438;-2.006;2022-12-29T07:18:30;99186.78;;;6.92;100.00
66668;BME280;57205;51.438;-2.006;2022-12-29T07:20:55;99201.94;;;6.97;100.00
66668;BME280;57205;51.438;-2.006;2022-12-29T07:23:20;99199.78;;;6.99;100.00
66668;BME280;57205;51.438;-2.006;2022-12-29T07:25:45;99200.84;;;6.98;100.00
66668;BME280;57205;51.438;-2.006;2022-12-29T07:28:11;99200.84;;;6.98;100.00
66668;BME280;57205;51.438;-2.006;2022-12-29T07:30:38;99199.00;;;6.98;100.00
66668;BME280;57205;51.438;-2.006;2022-12-29T07:33:03;99221.59;;;6.96;100.00
66668;BME280;57205;51.438;-2.006;2022-12-29T07:35:28;99227.44;;;6.98;100.00
66668;BME280;57205;51.438;-2.006;2022-12-29T07:37:54;99237.00;;;6.99;100.00
66668;BME280;57205;51.438;-2.006;2022-12-29T07:40:19;99231.16;;;7.02;100.00
66668;BME280;57205;51.438;-2.006;2022-12-29T07:42:45;99235.38;;;7.03;100.00
66668;BME280;57205;51.438;-2.006;2022-12-29T07:45:11;99233.25;;;7.05;100.00
66668;BME280;57205;51.438;-2.006;2022-12-29T07:47:36;99244.44;;;7.02;100.00
66668;BME280;57205;51.438;-2.006;2022-12-29T07:50:01;99243.38;;;7.03;100.00
66668;BME280;57205;51.438;-2.006;2022-12-29T07:52:27;99252.94;;;7.04;100.00
66668;BME280;57205;51.438;-2.006;2022-12-29T07:54:53;99246.53;;;7.05;100.00
66668;BME280;57205;51.438;-2.006;2022-12-29T07:57:18;99251.59;;;7.06;100.00
66668;BME280;57205;51.438;-2.006;2022-12-29T07:59:43;99275.25;;;7.13;100.00
66668;BME280;57205;51.438;-2.006;2022-12-29T08:02:10;99280.00;;;7.16;100.00
66668;BME280;57205;51.438;-2.006;2022-12-29T08:04:38;99287.72;;;7.12;100.00
66668;BME280;57205;51.438;-2.006;2022-12-29T08:07:04;99294.41;;;7.10;100.00
66668;BME280;57205;51.438;-2.006;2022-12-29T08:09:29;99296.03;;;7.06;100.00
66668;BME280;57205;51.438;-2.006;2022-12-29T08:11:54;99295.50;;;7.04;100.00
66668;BME280;57205;51.438;-2.006;2022-12-29T08:14:20;99301.09;;;7.02;100.00
66668;BME280;57205;51.438;-2.006;2022-12-29T08:16:45;99321.03;;;7.00;100.00
66668;BME280;57205;51.438;-2.006;2022-12-29T08:19:11;99327.16;;;7.00;100.00
66668;BME280;57205;51.438;-2.006;2022-12-29T08:21:36;99327.16;;;7.00;100.00
66668;BME280;57205;51.438;-2.006;2022-12-29T08:24:02;99325.03;;;7.02;100.00
66668;BME280;57205;51.438;-2.006;2022-12-29T08:26:27;99328.22;;;7.04;100.00
66668;BME280;57205;51.438;-2.006;2022-12-29T08:28:53;99339.09;;;7.03;100.00
66668;BME280;57205;51.438;-2.006;2022-12-29T08:31:19;99335.38;;;7.04;100.00
66668;BME280;57205;51.438;-2.006;2022-12-29T08:33:44;99348.16;;;7.02;100.00
66668;BME280;57205;51.438;-2.006;2022-12-29T08:36:10;99367.81;;;7.01;100.00
66668;BME280;57205;51.438;-2.006;2022-12-29T08:38:35;99384.31;;;7.03;100.00
66668;BME280;57205;51.438;-2.006;2022-12-29T08:41:00;99385.09;;;7.08;100.00
66668;BME280;57205;51.438;-2.006;2022-12-29T08:43:26;99384.56;;;7.11;100.00
66668;BME280;57205;51.438;-2.006;2022-12-29T08:45:52;99382.72;;;7.07;100.00
66668;BME280;57205;51.438;-2.006;2022-12-29T08:48:17;99384.84;;;7.05;100.00
66668;BME280;57205;51.438;-2.006;2022-12-29T08:50:45;99374.75;;;7.02;100.00
66668;BME280;57205;51.438;-2.006;2022-12-29T08:53:10;99385.13;;;6.98;100.00
66668;BME280;57205;51.438;-2.006;2022-12-29T08:55:36;99372.38;;;6.95;100.00
66668;BME280;57205;51.438;-2.006;2022-12-29T08:58:01;99377.94;;;6.99;100.00
66668;BME280;57205;51.438;-2.006;2022-12-29T09:00:26;99380.59;;;6.99;100.00
66668;BME280;57205;51.438;-2.006;2022-12-29T09:02:51;99389.09;;;7.01;100.00
66668;BME280;57205;51.438;-2.006;2022-12-29T09:05:17;99398.97;;;7.00;100.00
66668;BME280;57205;51.438;-2.006;2022-12-29T09:07:42;99391.75;;;7.06;100.00
66668;BME280;57205;51.438;-2.006;2022-12-29T09:10:07;99397.09;;;7.06;100.00
66668;BME280;57205;51.438;-2.006;2022-12-29T09:12:33;99401.56;;;7.15;100.00
66668;BME280;57205;51.438;-2.006;2022-12-29T09:14:58;99406.00;;;7.35;100.00
66668;BME280;57205;51.438;-2.006;2022-12-29T09:17:24;99412.59;;;7.52;100.00
66668;BME280;57205;51.438;-2.006;2022-12-29T09:20:19;99414.91;;;7.69;100.00
66668;BME280;57205;51.438;-2.006;2022-12-29T09:22:45;99423.94;;;7.73;100.00
66668;BME280;57205;51.438;-2.006;2022-12-29T09:25:10;99426.38;;;7.64;100.00
66668;BME280;57205;51.438;-2.006;2022-12-29T09:27:36;99419.75;;;7.57;100.00
66668;BME280;57205;51.438;-2.006;2022-12-29T09:30:05;99420.84;;;7.51;100.00
66668;BME280;57205;51.438;-2.006;2022-12-29T09:32:31;99417.41;;;7.50;100.00
66668;BME280;57205;51.438;-2.006;2022-12-29T09:34:56;99434.44;;;7.49;100.00
66668;BME280;57205;51.438;-2.006;2022-12-29T09:37:23;99426.19;;;7.46;100.00
66668;BME280;57205;51.438;-2.006;2022-12-29T09:39:48;99431.53;;;7.41;100.00
66668;BME280;57205;51.438;-2.006;2022-12-29T09:47:27;99452.56;;;7.32;100.00
66668;BME280;57205;51.438;-2.006;2022-12-29T09:49:54;99456.56;;;7.35;100.00
66668;BME280;57205;51.438;-2.006;2022-12-29T09:52:23;99455.78;;;7.29;100.00
66668;BME280;57205;51.438;-2.006;2022-12-29T09:59:58;99462.47;;;7.17;100.00
66668;BME280;57205;51.438;-2.006;2022-12-29T10:02:33;99468.84;;;7.16;100.00
66668;BME280;57205;51.438;-2.006;2022-12-29T10:05:01;99470.19;;;7.18;100.00
66668;BME280;57205;51.438;-2.006;2022-12-29T10:07:38;99464.31;;;7.21;100.00
66668;BME280;57205;51.438;-2.006;2022-12-29T10:25:39;99522.63;;;7.08;100.00
66668;BME280;57205;51.438;-2.006;2022-12-29T10:28:10;99500.81;;;7.06;100.00
66668;BME280;57205;51.438;-2.006;2022-12-29T10:30:40;99494.94;;;7.04;100.00
66668;BME280;57205;51.438;-2.006;2022-12-29T10:33:06;99502.94;;;7.04;100.00
66668;BME280;57205;51.438;-2.006;2022-12-29T10:35:36;99504.53;;;7.00;100.00
66668;BME280;57205;51.438;-2.006;2022-12-29T10:40:57;99513.03;;;7.02;100.00
66668;BME280;57205;51.438;-2.006;2022-12-29T10:46:11;99502.66;;;7.05;100.00
66668;BME280;57205;51.438;-2.006;2022-12-29T10:48:38;99514.09;;;7.11;100.00
66668;BME280;57205;51.438;-2.006;2022-12-29T10:51:07;99513.53;;;7.14;100.00
66668;BME280;57205;51.438;-2.006;2022-12-29T10:56:39;99520.47;;;7.20;100.00
66668;BME280;57205;51.438;-2.006;2022-12-29T10:59:12;99544.41;;;7.30;100.00
66668;BME280;57205;51.438;-2.006;2022-12-29T11:01:44;99538.00;;;7.31;100.00
66668;BME280;57205;51.438;-2.006;2022-12-29T11:04:35;99507.94;;;7.25;100.00
66668;BME280;57205;51.438;-2.006;2022-12-29T11:07:04;99510.31;;;7.27;100.00
66668;BME280;57205;51.438;-2.006;2022-12-29T11:09:32;99520.97;;;7.27;100.00
66668;BME280;57205;51.438;-2.006;2022-12-29T11:11:58;99519.09;;;7.32;100.00
66668;BME280;57205;51.438;-2.006;2022-12-29T11:14:28;99516.19;;;7.34;100.00
66668;BME280;57205;51.438;-2.006;2022-12-29T11:17:01;99521.22;;;7.35;100.00
66668;BME280;57205;51.438;-2.006;2022-12-29T11:19:28;99524.94;;;7.44;100.00
66668;BME280;57205;51.438;-2.006;2022-12-29T11:21:56;99535.81;;;7.53;100.00
66668;BME280;57205;51.438;-2.006;2022-12-29T11:24:36;99535.81;;;7.58;100.00
66668;BME280;57205;51.438;-2.006;2022-12-29T11:27:10;99543.00;;;7.57;100.00
66668;BME280;57205;51.438;-2.006;2022-12-29T11:29:40;99531.56;;;7.57;100.00
66668;BME280;57205;51.438;-2.006;2022-12-29T11:32:19;99529.16;;;7.65;100.00
66668;BME280;57205;51.438;-2.006;2022-12-29T11:34:45;99538.44;;;7.68;100.00
66668;BME280;57205;51.438;-2.006;2022-12-29T11:37:17;99539.50;;;7.72;100.00
66668;BME280;57205;51.438;-2.006;2022-12-29T11:39:53;99536.81;;;7.72;100.00
66668;BME280;57205;51.438;-2.006;2022-12-29T11:42:22;99537.09;;;7.75;100.00
66668;BME280;57205;51.438;-2.006;2022-12-29T11:44:50;99536.53;;;7.78;100.00
66668;BME280;57205;51.438;-2.006;2022-12-29T11:47:35;99531.19;;;7.78;100.00
66668;BME280;57205;51.438;-2.006;2022-12-29T11:50:02;99534.16;;;7.82;100.00
66668;BME280;57205;51.438;-2.006;2022-12-29T11:52:30;99533.34;;;7.81;100.00
66668;BME280;57205;51.438;-2.006;2022-12-29T11:54:58;99531.72;;;7.80;100.00
66668;BME280;57205;51.438;-2.006;2022-12-29T11:57:24;99527.75;;;7.78;100.00
66668;BME280;57205;51.438;-2.006;2022-12-29T11:59:54;99527.22;;;7.81;100.00
66668;BME280;57205;51.438;-2.006;2022-12-29T12:05:12;99541.84;;;7.83;100.00
66668;BME280;57205;51.438;-2.006;2022-12-29T12:10:04;99536.50;;;7.88;100.00
66668;BME280;57205;51.438;-2.006;2022-12-29T12:12:39;99544.22;;;7.90;100.00
66668;BME280;57205;51.438;-2.006;2022-12-29T12:15:08;99550.91;;;7.87;100.00
66668;BME280;57205;51.438;-2.006;2022-12-29T12:20:44;99555.16;;;7.88;100.00
66668;BME280;57205;51.438;-2.006;2022-12-29T12:25:59;99555.41;;;7.87;100.00
66668;BME280;57205;51.438;-2.006;2022-12-29T12:28:33;99568.72;;;7.87;100.00
66668;BME280;57205;51.438;-2.006;2022-12-29T12:31:01;99558.09;;;7.87;100.00
66668;BME280;57205;51.438;-2.006;2022-12-29T12:33:37;99557.25;;;7.91;100.00
66668;BME280;57205;51.438;-2.006;2022-12-29T12:38:55;99554.88;;;7.95;100.00
66668;BME280;57205;51.438;-2.006;2022-12-29T12:41:26;99562.31;;;7.93;100.00
66668;BME280;57205;51.438;-2.006;2022-12-29T13:00:11;99571.75;;;7.65;100.00
66668;BME280;57205;51.438;-2.006;2022-12-29T13:10:36;99578.41;;;7.63;100.00
66668;BME280;57205;51.438;-2.006;2022-12-29T13:15:38;99579.97;;;7.64;100.00
66668;BME280;57205;51.438;-2.006;2022-12-29T13:20:37;99583.97;;;7.66;100.00
66668;BME280;57205;51.438;-2.006;2022-12-29T13:25:53;99570.91;;;7.70;100.00
66668;BME280;57205;51.438;-2.006;2022-12-29T13:33:41;99578.91;;;7.70;100.00
66668;BME280;57205;51.438;-2.006;2022-12-29T13:38:36;99580.22;;;7.67;100.00
66668;BME280;57205;51.438;-2.006;2022-12-29T13:41:04;99583.44;;;7.74;100.00
66668;BME280;57205;51.438;-2.006;2022-12-29T13:43:31;99593.25;;;7.79;100.00
66668;BME280;57205;51.438;-2.006;2022-12-29T13:46:01;99603.09;;;7.78;100.00
66668;BME280;57205;51.438;-2.006;2022-12-29T13:48:35;99606.03;;;7.77;100.00
66668;BME280;57205;51.438;-2.006;2022-12-29T13:51:02;99611.34;;;7.77;100.00
66668;BME280;57205;51.438;-2.006;2022-12-29T13:53:34;99618.31;;;7.78;100.00
66668;BME280;57205;51.438;-2.006;2022-12-29T13:56:12;99605.50;;;7.80;100.00
66668;BME280;57205;51.438;-2.006;2022-12-29T14:03:52;99622.00;;;7.77;100.00
66668;BME280;57205;51.438;-2.006;2022-12-29T14:06:22;99620.44;;;7.76;100.00
66668;BME280;57205;51.438;-2.006;2022-12-29T14:08:49;99626.81;;;7.75;100.00
66668;BME280;57205;51.438;-2.006;2022-12-29T14:11:17;99622.31;;;7.70;100.00
66668;BME280;57205;51.438;-2.006;2022-12-29T14:13:43;99620.69;;;7.69;100.00
66668;BME280;57205;51.438;-2.006;2022-12-29T14:16:21;99606.59;;;7.64;100.00
66668;BME280;57205;51.438;-2.006;2022-12-29T14:18:49;99607.69;;;7.58;100.00
66668;BME280;57205;51.438;-2.006;2022-12-29T14:23:41;99630.06;;;7.52;100.00
66668;BME280;57205;51.438;-2.006;2022-12-29T14:28:33;99631.13;;;7.56;100.00
66668;BME280;57205;51.438;-2.006;2022-12-29T14:30:59;99632.44;;;7.63;100.00
66668;BME280;57205;51.438;-2.006;2022-12-29T14:33:26;99628.97;;;7.63;100.00
66668;BME280;57205;51.438;-2.006;2022-12-29T14:35:52;99633.75;;;7.66;100.00
66668;BME280;57205;51.438;-2.006;2022-12-29T14:38:19;99633.22;;;7.64;100.00
66668;BME280;57205;51.438;-2.006;2022-12-29T14:40:46;99636.16;;;7.62;100.00
66668;BME280;57205;51.438;-2.006;2022-12-29T14:43:14;99636.69;;;7.59;100.00
66668;BME280;57205;51.438;-2.006;2022-12-29T14:45:42;99640.44;;;7.63;100.00
66668;BME280;57205;51.438;-2.006;2022-12-29T14:50:51;99632.69;;;7.67;100.00
66668;BME280;57205;51.438;-2.006;2022-12-29T14:56:01;99623.63;;;7.73;100.00
66668;BME280;57205;51.438;-2.006;2022-12-29T14:58:30;99635.59;;;7.75;100.00
66668;BME280;57205;51.438;-2.006;2022-12-29T15:00:56;99636.16;;;7.72;100.00
66668;BME280;57205;51.438;-2.006;2022-12-29T15:03:25;99668.88;;;7.73;100.00
66668;BME280;57205;51.438;-2.006;2022-12-29T15:08:23;99667.28;;;7.77;100.00
66668;BME280;57205;51.438;-2.006;2022-12-29T15:10:56;99675.28;;;7.67;100.00
66668;BME280;57205;51.438;-2.006;2022-12-29T15:13:24;99675.84;;;7.54;100.00